Time;durP1;ratioP1;P1;durP2;ratioP2;P2;SDS_P1;SDS_P2;PMS_P1;PMS_P2;Temp;Humidity;BMP_temperature;BMP_pressure;BME280_temperature;BME280_humidity;BME280_pressure;Samples;Min_cycle;Max_cycle;Signal;HPM_P1;HPM_P2
2022/10/12 06:17:58;;;;;;;;;17.50;17.00;;;;;8.17;79.23;102017.72;6140716;22;1301710;-74
2022/10/12 06:20:24;;;;;;;;;19.50;18.25;;;;;8.92;79.25;102150.66;6304775;22;49587;-73
2022/10/12 06:22:49;;;;;;;;;22.00;19.25;;;;;8.94;79.46;102149.00;6299279;22;49733;-73
2022/10/12 06:25:15;;;;;;;;;16.50;16.50;;;;;8.98;79.48;102150.97;6300765;22;61571;-73
2022/10/12 06:27:40;;;;;;;;;16.00;16.00;;;;;8.52;78.84;102084.94;6298069;22;49691;-73
2022/10/12 06:30:05;;;;;;;;;18.25;17.25;;;;;9.00;78.69;102156.28;6298384;22;49690;-73
2022/10/12 06:32:31;;;;;;;;;15.00;13.50;;;;;8.94;78.90;102155.97;6298107;22;49596;-73
2022/10/12 06:34:57;;;;;;;;;20.75;17.25;;;;;9.03;78.66;102164.28;6298210;22;50341;-73
2022/10/12 06:37:22;;;;;;;;;21.00;19.50;;;;;9.11;78.57;102171.69;6298020;22;49513;-74
2022/10/12 06:39:47;;;;;;;;;13.00;12.00;;;;;8.88;77.81;102143.47;6298736;22;49745;-73
2022/10/12 06:42:13;;;;;;;;;23.25;18.25;;;;;9.22;77.97;102169.59;6297706;22;51420;-73
2022/10/12 06:44:38;;;;;;;;;17.50;16.75;;;;;9.29;78.02;102178.66;6298148;22;49778;-74
2022/10/12 06:47:03;;;;;;;;;19.25;17.50;;;;;9.19;77.08;102156.34;6298598;22;49813;-74
2022/10/12 06:49:29;;;;;;;;;19.25;19.25;;;;;8.95;77.59;102108.88;6298261;22;50495;-75
2022/10/12 06:51:54;;;;;;;;;18.75;17.00;;;;;8.62;77.18;102024.38;6298798;22;49510;-74
2022/10/12 06:54:19;;;;;;;;;19.50;18.00;;;;;9.31;76.51;102140.31;6296543;22;51465;-75
2022/10/12 06:56:45;;;;;;;;;22.25;19.00;;;;;8.95;76.56;102064.38;6297921;22;50319;-74
2022/10/12 06:59:11;;;;;;;;;22.75;19.75;;;;;9.05;76.34;102071.84;6295868;22;52344;-74
2022/10/12 07:01:37;;;;;;;;;25.00;22.00;;;;;8.65;76.32;102015.75;6298258;22;49682;-74
2022/10/12 07:04:03;;;;;;;;;18.50;16.00;;;;;9.09;75.75;102072.91;6298311;22;50297;-74
2022/10/12 07:06:28;;;;;;;;;30.75;26.25;;;;;8.63;75.28;101984.28;6298438;22;49839;-74
2022/10/12 07:08:54;;;;;;;;;15.50;15.50;;;;;8.93;75.29;102033.69;6296563;22;49632;-74
2022/10/12 07:11:19;;;;;;;;;23.25;22.00;;;;;9.85;75.76;102189.22;6298834;22;50035;-74
2022/10/12 07:13:45;;;;;;;;;25.25;20.75;;;;;9.46;75.41;102120.97;6297973;22;50156;-73
2022/10/12 07:16:10;;;;;;;;;28.50;26.25;;;;;9.17;75.41;102063.69;6295987;22;49651;-73
2022/10/12 07:18:35;;;;;;;;;26.00;26.00;;;;;9.18;75.45;102065.47;6298189;22;49735;-72
2022/10/12 07:21:01;;;;;;;;;27.75;25.50;;;;;9.96;75.42;102192.34;6297985;22;49833;-73
2022/10/12 07:23:27;;;;;;;;;24.50;23.75;;;;;9.52;75.38;102117.72;6297722;22;50550;-73
2022/10/12 07:25:53;;;;;;;;;21.50;21.00;;;;;9.24;74.79;102067.47;6298531;22;49772;-74
2022/10/12 07:28:19;;;;;;;;;27.75;24.00;;;;;9.45;74.49;102092.94;6295861;22;49764;-74
2022/10/12 07:30:45;;;;;;;;;21.50;20.25;;;;;9.91;74.62;102165.88;6297946;22;49691;-73
2022/10/12 07:33:11;;;;;;;;;28.00;24.75;;;;;9.86;74.59;102151.66;6297504;22;50701;-74
2022/10/12 07:35:36;;;;;;;;;30.50;27.00;;;;;9.60;74.64;102107.59;6297471;22;49769;-74
2022/10/12 07:38:01;;;;;;;;;26.25;23.25;;;;;9.43;74.32;102059.63;6295039;22;50382;-73
2022/10/12 07:40:27;;;;;;;;;33.00;32.00;;;;;9.01;73.51;102003.53;6298556;22;49734;-73
2022/10/12 07:42:53;;;;;;;;;19.25;18.00;;;;;10.00;74.25;102168.03;6298155;22;50720;-73
2022/10/12 07:45:18;;;;;;;;;26.00;23.00;;;;;10.06;73.89;102164.78;6297945;22;49581;-73
2022/10/12 07:47:43;;;;;;;;;27.00;22.25;;;;;9.48;73.87;102046.75;6298114;22;49751;-73
2022/10/12 07:50:09;;;;;;;;;28.25;24.00;;;;;10.39;73.61;102199.53;6297712;22;53146;-73
2022/10/12 07:52:34;;;;;;;;;33.50;29.00;;;;;10.44;73.70;102221.66;6297667;22;50620;-73
2022/10/12 07:55:00;;;;;;;;;26.00;21.25;;;;;9.80;73.67;102092.78;6296941;22;50767;-73
2022/10/12 07:57:25;;;;;;;;;27.50;24.25;;;;;9.69;73.65;102077.47;6322598;22;49700;-73
2022/10/12 07:59:50;;;;;;;;;26.00;25.50;;;;;10.18;73.37;102125.97;6298415;22;49917;-73
2022/10/12 08:02:16;;;;;;;;;26.50;24.50;;;;;10.00;73.31;102086.69;6298325;22;50237;-73
2022/10/12 08:04:41;;;;;;;;;26.00;25.50;;;;;10.72;72.81;102208.00;6295954;22;49541;-73
2022/10/12 08:07:06;;;;;;;;;27.50;25.50;;;;;10.03;72.58;102090.34;6297786;22;49899;-73
2022/10/12 08:09:34;;;;;;;;;26.50;24.25;;;;;9.90;72.71;102080.16;6298520;22;49769;-73
2022/10/12 08:12:00;;;;;;;;;30.75;27.50;;;;;10.11;72.19;102098.56;6297658;22;50917;-73
2022/10/12 08:14:25;;;;;;;;;29.00;25.25;;;;;10.59;72.05;102175.94;6297565;22;49751;-73
2022/10/12 08:16:50;;;;;;;;;20.50;20.50;;;;;10.17;71.99;102093.59;6297463;22;49694;-73
2022/10/12 08:19:16;;;;;;;;;27.75;27.50;;;;;10.96;71.58;102211.66;6297019;22;49763;-73
2022/10/12 08:21:41;;;;;;;;;24.50;22.75;;;;;11.05;72.09;102213.78;6293739;22;51583;-73
2022/10/12 08:24:08;;;;;;;;;25.75;25.00;;;;;11.05;71.06;102205.91;6296975;22;49865;-72
2022/10/12 08:26:33;;;;;;;;;27.50;24.75;;;;;10.64;71.40;102125.38;6295244;22;49686;-73
2022/10/12 08:29:01;;;;;;;;;21.25;21.00;;;;;10.94;70.98;102155.53;6298096;22;49732;-73
2022/10/12 08:31:26;;;;;;;;;25.00;22.50;;;;;11.33;71.33;102219.34;6297524;22;50561;-73
2022/10/12 08:33:51;;;;;;;;;25.00;23.25;;;;;11.39;71.11;102213.47;6297577;22;49849;-73
2022/10/12 08:36:17;;;;;;;;;24.75;24.00;;;;;11.08;71.25;102133.34;6297673;22;49856;-73
2022/10/12 08:38:42;;;;;;;;;27.50;24.00;;;;;11.00;70.49;102112.81;6298150;22;49851;-73
2022/10/12 08:41:30;;;;;;;;;27.75;24.75;;;;;11.65;70.60;102206.59;6297561;22;50396;-73
2022/10/12 08:44:30;;;;;;;;;24.50;21.00;;;;;11.73;70.22;102203.44;6297805;22;49679;-74
2022/10/12 08:47:00;;;;;;;;;27.75;26.75;;;;;11.52;69.76;102154.34;6297826;22;49632;-73
2022/10/12 08:49:29;;;;;;;;;29.50;25.50;;;;;11.86;69.99;102204.81;6297903;22;49889;-73
2022/10/12 08:51:58;;;;;;;;;27.75;21.00;;;;;11.34;69.39;102115.97;6297226;22;50663;-74
2022/10/12 08:54:28;;;;;;;;;27.50;23.75;;;;;11.84;69.21;102185.44;6297813;22;49728;-74
2022/10/12 08:56:56;;;;;;;;;23.75;17.00;;;;;11.61;68.76;102131.03;6297458;22;49660;-73
2022/10/12 08:59:21;;;;;;;;;29.25;25.75;;;;;11.75;69.21;102148.22;6296719;22;49745;-74
2022/10/12 09:01:50;;;;;;;;;25.00;25.00;;;;;12.25;68.78;102209.78;6297350;22;51060;-74
2022/10/12 09:04:46;;;;;;;;;29.00;29.00;;;;;12.35;68.44;102206.66;6297964;22;49896;-73
2022/10/12 09:07:27;;;;;;;;;23.00;23.00;;;;;11.44;67.74;102038.34;6297170;22;49787;-74
2022/10/12 09:10:18;;;;;;;;;30.00;29.00;;;;;12.49;68.28;102200.16;6299206;22;50300;-75
2022/10/12 09:12:58;;;;;;;;;31.75;31.75;;;;;12.53;67.29;102201.16;6297182;22;50074;-74
2022/10/12 09:15:30;;;;;;;;;29.25;23.25;;;;;11.86;67.02;102081.16;6297348;22;49789;-74
2022/10/12 09:17:58;;;;;;;;;31.25;24.75;;;;;12.44;66.87;102169.22;6295461;22;49727;-76
2022/10/12 09:20:44;;;;;;;;;25.75;23.00;;;;;12.34;67.16;102117.97;6297243;22;49753;-79
2022/10/12 09:23:32;;;;;;;;;30.50;25.75;;;;;13.03;66.57;102196.78;6295750;22;49956;-75
2022/10/12 09:26:16;;;;;;;;;25.75;22.50;;;;;13.07;66.32;102207.44;6297388;22;49821;-76
2022/10/12 09:28:56;;;;;;;;;26.75;24.00;;;;;12.74;65.79;102135.13;6297387;22;49749;-73
2022/10/12 09:31:46;;;;;;;;;31.25;29.00;;;;;13.14;65.65;102183.09;6298061;22;49737;-76
2022/10/12 09:34:12;;;;;;;;;26.25;22.25;;;;;12.69;65.34;102099.84;6296700;22;50024;-73
2022/10/12 09:36:39;;;;;;;;;34.50;27.50;;;;;13.23;65.37;102182.53;6297502;22;49889;-79
2022/10/12 09:39:29;;;;;;;;;25.25;25.25;;;;;13.15;65.49;102171.69;6297388;22;49743;-78
2022/10/12 09:41:55;;;;;;;;;30.50;28.75;;;;;12.10;65.00;101990.75;6297037;22;50040;-80
2022/10/12 09:44:34;;;;;;;;;29.75;29.00;;;;;13.02;65.17;102143.13;6297105;22;50756;-73
2022/10/12 09:47:02;;;;;;;;;33.00;28.50;;;;;13.28;64.69;102172.13;6295407;22;49621;-73
2022/10/12 09:49:45;;;;;;;;;33.50;32.00;;;;;12.84;65.18;102090.72;6298098;22;49612;-82
2022/10/12 09:52:14;;;;;;;;;29.25;25.25;;;;;13.52;64.97;102174.66;6297639;22;49706;-74
2022/10/12 09:54:46;;;;;;;;;33.25;31.00;;;;;13.25;65.31;102114.91;6296781;22;50739;-77
2022/10/12 09:57:28;;;;;;;;;33.00;31.75;;;;;13.43;64.69;102131.31;6297189;22;49718;-79
2022/10/12 09:59:54;;;;;;;;;32.25;28.75;;;;;13.33;64.16;102096.69;6296827;22;49847;-76
2022/10/12 10:02:23;;;;;;;;;30.50;26.25;;;;;13.71;64.33;102148.88;6298814;22;49639;-73
2022/10/12 10:04:50;;;;;;;;;31.50;28.25;;;;;13.33;64.01;102065.03;6298056;22;50357;-75
2022/10/12 10:07:26;;;;;;;;;32.00;30.75;;;;;14.02;64.84;102168.25;6298351;22;49525;-76
2022/10/12 10:10:16;;;;;;;;;26.25;23.50;;;;;14.10;65.11;102164.09;6298876;22;49574;-74
2022/10/12 10:13:01;;;;;;;;;26.50;24.25;;;;;13.26;65.73;102000.66;6298614;22;49833;-75
2022/10/12 10:15:30;;;;;;;;;33.00;29.50;;;;;13.81;64.94;102088.44;6297790;22;49742;-74
2022/10/12 10:17:59;;;;;;;;;33.75;27.75;;;;;14.00;65.06;102098.66;6297906;22;49904;-73
2022/10/12 10:20:33;;;;;;;;;31.75;31.00;;;;;14.12;64.71;102106.03;6297507;22;49560;-77
2022/10/12 10:23:01;;;;;;;;;30.75;26.50;;;;;14.48;65.45;102148.44;6298777;22;49867;-75
2022/10/12 10:25:27;;;;;;;;;30.75;29.75;;;;;13.52;65.29;101980.31;6298321;22;49953;-77
2022/10/12 10:28:29;;;;;;;;;26.25;23.50;;;;;14.63;65.58;102147.94;6298464;22;49555;-73
2022/10/12 10:31:06;;;;;;;;;30.50;26.75;;;;;14.62;64.43;102139.13;6172072;23;50122;-74
2022/10/12 10:33:35;;;;;;;;;34.75;30.50;;;;;13.93;64.43;102009.59;6282938;22;49755;-74
2022/10/12 10:36:01;;;;;;;;;29.50;27.25;;;;;14.83;65.16;102152.88;6297659;22;50565;-77
2022/10/12 10:38:29;;;;;;;;;29.75;25.25;;;;;14.75;64.87;102132.38;6298359;22;49794;-73
2022/10/12 10:40:56;;;;;;;;;29.75;24.00;;;;;14.23;65.22;102034.16;6297920;22;49718;-78
2022/10/12 10:43:27;;;;;;;;;24.25;23.25;;;;;14.67;65.03;102073.16;6298984;22;49629;-75
2022/10/12 10:46:02;;;;;;;;;19.00;19.00;;;;;15.16;65.24;102136.97;6298081;22;50789;-74
2022/10/12 10:48:32;;;;;;;;;22.25;19.50;;;;;15.08;65.23;102109.44;6297867;22;49656;-75
2022/10/12 10:51:01;;;;;;;;;27.75;24.75;;;;;14.67;65.09;102039.72;6298263;22;49814;-76
2022/10/12 10:53:43;;;;;;;;;25.00;23.25;;;;;15.32;64.59;102132.91;6295661;22;50055;-79
2022/10/12 10:56:30;;;;;;;;;29.75;27.25;;;;;15.40;66.12;102141.94;6298266;22;50395;-74
2022/10/12 10:58:58;;;;;;;;;27.50;24.75;;;;;15.53;66.22;102140.44;6297979;22;49804;-76
2022/10/12 11:01:27;;;;;;;;;21.50;20.25;;;;;15.57;66.64;102134.38;6298492;22;49724;-74
2022/10/12 11:04:15;;;;;;;;;28.25;24.00;;;;;15.61;66.34;102130.06;6298580;22;49723;-75
2022/10/12 11:06:43;;;;;;;;;27.75;24.50;;;;;14.61;66.92;101976.13;6298297;22;50441;-75
2022/10/12 11:09:22;;;;;;;;;26.75;23.75;;;;;15.70;66.96;102130.25;6297894;22;49589;-78
2022/10/12 11:11:56;;;;;;;;;24.50;21.25;;;;;14.82;67.01;101951.94;6297891;22;49829;-75
2022/10/12 11:14:29;;;;;;;;;22.00;19.25;;;;;16.06;66.23;102129.25;6298328;22;49698;-74
2022/10/12 11:17:02;;;;;;;;;21.50;19.75;;;;;15.78;66.14;102040.41;6297715;22;50427;-81
2022/10/12 11:19:41;;;;;;;;;20.75;20.00;;;;;16.03;66.17;102053.28;6298318;22;49841;-74
2022/10/12 11:22:29;;;;;;;;;20.50;19.25;;;;;16.66;65.68;102116.25;6298385;22;49777;-74
2022/10/12 11:25:13;;;;;;;;;21.25;20.00;;;;;16.26;64.68;101987.44;6298712;22;49721;-74
2022/10/12 11:27:41;;;;;;;;;16.25;15.00;;;;;16.70;63.81;101998.81;6303083;22;50121;-74
2022/10/12 11:30:21;;;;;;;;;11.75;10.50;;;;;17.48;63.46;102098.13;6302881;22;49914;-73
2022/10/12 11:32:52;;;;;;;;;12.50;9.25;;;;;17.74;62.46;102112.63;6297932;22;49799;-74
2022/10/12 11:35:26;;;;;;;;;15.00;11.75;;;;;17.57;61.08;102036.28;6303771;22;49561;-77
2022/10/12 11:38:00;;;;;;;;;14.50;11.25;;;;;18.23;60.85;102107.91;6298409;22;49698;-74
2022/10/12 11:40:41;;;;;;;;;17.00;13.00;;;;;18.43;60.07;102102.81;6310579;22;49614;-79
2022/10/12 11:43:15;;;;;;;;;38.75;32.25;;;;;18.12;59.10;102007.66;6303420;22;49750;-80
2022/10/12 11:46:20;;;;;;;;;37.00;32.75;;;;;18.79;58.21;102093.38;6300464;22;49995;-90
2022/10/12 11:49:21;;;;;;;;;45.00;34.75;;;;;19.01;57.54;102103.34;6298166;22;49732;-88
2022/10/12 11:51:58;;;;;;;;;51.50;40.00;;;;;17.94;56.72;101870.22;6309369;22;49251;-84
2022/10/12 11:54:44;;;;;;;;;32.00;31.50;;;;;19.39;56.60;102084.94;6310677;22;49298;-86
2022/10/12 11:57:15;;;;;;;;;31.75;30.25;;;;;19.31;55.60;102038.75;6310595;22;49454;-76
2022/10/12 11:59:44;;;;;;;;;32.50;25.00;;;;;19.60;55.10;102062.88;6308294;22;49631;-81
2022/10/12 12:02:23;;;;;;;;;43.00;33.50;;;;;18.87;55.40;101924.06;6296834;22;49755;-78
2022/10/12 12:05:33;;;;;;;;;46.00;38.25;;;;;18.66;55.01;101876.97;6298971;22;49850;-83
2022/10/12 12:08:01;;;;;;;;;37.00;31.50;;;;;19.54;54.35;102021.97;6279217;22;49772;-80
2022/10/12 12:10:27;;;;;;;;;45.25;38.00;;;;;19.63;54.22;102030.03;6299783;22;50517;-78
2022/10/12 12:13:22;;;;;;;;;;;;;;;;;;;;;
2022/10/12 12:16:20;;;;;;;;;;;;;;;;;;;;;
2022/10/12 12:19:24;;;;;;;;;38.00;34.25;;;;;19.68;54.27;102039.81;6296309;22;67766;-78
2022/10/12 12:22:30;;;;;;;;;14.75;14.00;;;;;19.59;54.67;102028.22;6297751;22;49784;-77
2022/10/12 12:25:15;;;;;;;;;11.00;11.00;;;;;18.85;54.04;101910.75;6295374;22;49561;-77
2022/10/12 12:27:51;;;;;;;;;25.00;19.50;;;;;19.51;54.32;102040.63;6295777;22;49624;-78
2022/10/12 12:30:16;;;;;;;;;17.75;15.25;;;;;19.54;53.97;102044.19;6297917;22;49980;-79
2022/10/12 12:32:50;;;;;;;;;18.50;18.25;;;;;19.15;53.97;101965.91;6297673;22;49671;-78
2022/10/12 12:35:28;;;;;;;;;26.50;20.25;;;;;19.51;53.34;102006.88;6297811;22;49837;-84
2022/10/12 12:38:12;;;;;;;;;16.00;15.25;;;;;19.48;53.94;101980.22;6322316;22;49795;-77
2022/10/12 12:40:40;;;;;;;;;30.00;26.00;;;;;19.23;53.74;101922.47;6298041;22;49656;-78
2022/10/12 12:43:20;;;;;;;;;15.00;14.00;;;;;18.86;52.75;101845.13;6297169;22;50497;-78
2022/10/12 12:45:53;;;;;;;;;15.25;15.25;;;;;19.60;53.16;101990.09;6293918;22;49742;-78
2022/10/12 12:48:37;;;;;;;;;27.75;27.00;;;;;19.94;52.99;102029.25;6297559;22;49700;-80
2022/10/12 12:51:07;;;;;;;;;39.25;34.25;;;;;19.99;52.90;102029.25;6298239;22;49715;-78
2022/10/12 12:53:37;;;;;;;;;18.75;17.00;;;;;19.52;52.52;101955.41;6297436;22;49935;-80
2022/10/12 12:56:06;;;;;;;;;11.50;11.50;;;;;19.34;52.38;101950.91;6295315;22;49709;-76
2022/10/12 12:59:11;;;;;;;;;11.50;10.00;;;;;19.40;52.46;101968.69;6298636;22;49703;-78
2022/10/12 13:01:42;;;;;;;;;12.25;12.25;;;;;19.56;52.81;102014.91;6299605;22;49877;-78
2022/10/12 13:04:29;;;;;;;;;14.75;14.50;;;;;19.02;53.49;101937.47;6295576;22;53039;-77
2022/10/12 13:07:29;;;;;;;;;16.75;14.50;;;;;19.10;53.50;101980.94;6297136;22;49584;-77
2022/10/12 13:10:10;;;;;;;;;15.50;14.75;;;;;18.99;53.78;101981.78;6290697;22;49771;-79
2022/10/12 13:12:59;;;;;;;;;14.50;14.00;;;;;19.19;54.30;102025.34;6294234;22;50021;-78
2022/10/12 13:15:40;;;;;;;;;13.50;12.00;;;;;19.16;54.39;102025.34;6294068;22;52184;-82
2022/10/12 13:18:21;;;;;;;;;12.00;11.25;;;;;18.98;53.95;101982.66;6296429;22;49743;-81
2022/10/12 13:20:47;;;;;;;;;18.75;17.25;;;;;19.25;54.70;102028.06;6301100;22;49500;-83
2022/10/12 13:23:18;;;;;;;;;11.00;10.50;;;;;18.24;53.11;101851.00;6327876;22;49488;-86
2022/10/12 13:25:52;;;;;;;;;15.25;15.25;;;;;19.36;53.28;102052.06;6330977;22;51812;-82
2022/10/12 13:28:22;;;;;;;;;15.00;15.00;;;;;18.73;53.23;101916.03;6303809;22;49795;-82
2022/10/12 13:30:57;;;;;;;;;13.50;11.50;;;;;19.20;53.82;101992.53;6309195;22;49384;-79
2022/10/12 13:33:33;;;;;;;;;11.75;10.25;;;;;19.48;53.33;102017.50;6308493;22;49194;-79
2022/10/12 13:36:22;;;;;;;;;11.25;10.75;;;;;19.43;53.04;101996.19;6307259;22;50976;-79
2022/10/12 13:39:05;;;;;;;;;18.50;18.50;;;;;19.50;53.30;101989.13;6332556;22;49674;-79
2022/10/12 13:41:32;;;;;;;;;11.00;10.25;;;;;19.90;52.68;102023.91;6306943;22;50307;-79
2022/10/12 13:44:06;;;;;;;;;20.25;19.25;;;;;20.01;52.45;102023.03;6311013;22;49332;-78
2022/10/12 13:46:42;;;;;;;;;14.75;13.75;;;;;20.17;51.99;102012.38;6329408;22;52072;-81
2022/10/12 13:49:23;;;;;;;;;15.50;13.25;;;;;19.35;51.83;101853.25;6300044;22;49807;-79
2022/10/12 13:52:00;;;;;;;;;8.25;8.25;;;;;19.57;50.90;101870.19;6330984;22;49853;-80
2022/10/12 13:54:34;;;;;;;;;13.75;13.00;;;;;19.50;51.69;101841.75;6308727;22;49516;-78
2022/10/12 13:57:06;;;;;;;;;10.00;10.00;;;;;20.42;51.33;102008.84;6310169;22;49956;-79
2022/10/12 13:59:36;;;;;;;;;14.00;12.75;;;;;19.25;50.60;101787.56;6307288;22;49367;-80
2022/10/12 14:02:15;;;;;;;;;11.00;10.00;;;;;19.40;50.74;101831.09;6326024;22;49749;-80
2022/10/12 14:04:42;;;;;;;;;10.75;10.75;;;;;19.80;50.91;101904.88;6303773;22;49609;-80
2022/10/12 14:07:19;;;;;;;;;9.00;7.50;;;;;19.29;50.55;101830.16;6300328;22;51059;-83
2022/10/12 14:09:50;;;;;;;;;12.00;10.25;;;;;19.47;51.12;101861.25;6302196;22;49566;-81
2022/10/12 14:12:16;;;;;;;;;9.25;8.75;;;;;19.11;50.84;101806.19;6310655;22;49444;-77
2022/10/12 14:14:44;;;;;;;;;12.25;10.25;;;;;19.77;51.32;101911.06;6311492;22;49166;-77
2022/10/12 14:17:17;;;;;;;;;7.50;7.50;;;;;19.42;51.19;101847.97;6335771;22;51326;-82
2022/10/12 14:19:47;;;;;;;;;6.00;6.00;;;;;20.04;50.71;101960.84;6310728;22;49414;-82
2022/10/12 14:22:24;;;;;;;;;10.25;8.75;;;;;19.97;50.47;101967.03;6300197;22;49680;-79
2022/10/12 14:25:06;;;;;;;;;6.25;5.50;;;;;20.04;51.05;101995.50;6300813;22;49647;-79
2022/10/12 14:27:33;;;;;;;;;8.25;8.25;;;;;19.19;51.01;101847.00;6307567;22;49732;-78
2022/10/12 14:30:23;;;;;;;;;20.75;19.00;;;;;19.27;51.34;101871.88;6295763;22;49733;-78
2022/10/12 14:32:50;;;;;;;;;6.50;6.50;;;;;19.21;51.93;101847.03;6302837;22;49615;-83
2022/10/12 14:35:25;;;;;;;;;10.25;9.75;;;;;19.54;51.20;101899.47;6293211;22;49903;-80
2022/10/12 14:37:53;;;;;;;;;7.75;7.50;;;;;20.14;50.60;101970.63;6297602;22;49807;-84
2022/10/12 14:40:35;;;;;;;;;5.00;5.00;;;;;19.30;50.06;101810.69;6320322;22;49668;-79
2022/10/12 14:43:22;;;;;;;;;8.75;7.00;;;;;19.74;49.81;101863.13;6323178;22;49786;-81
2022/10/12 14:45:49;;;;;;;;;12.25;12.25;;;;;20.33;50.59;101939.50;6299363;22;49802;-81
2022/10/12 14:48:18;;;;;;;;;7.00;5.50;;;;;20.35;49.27;101939.50;6296683;22;49767;-81
2022/10/12 14:50:44;;;;;;;;;9.75;9.75;;;;;20.53;49.59;101975.09;6297199;22;49696;-82
2022/10/12 14:53:12;;;;;;;;;6.75;6.75;;;;;19.84;49.84;101832.91;6297519;22;49639;-77
2022/10/12 14:55:38;;;;;;;;;10.50;9.25;;;;;20.52;49.73;101965.31;6300101;22;49909;-78
2022/10/12 14:58:08;;;;;;;;;9.00;8.25;;;;;19.98;50.16;101903.09;6298622;22;50825;-76
2022/10/12 15:00:36;;;;;;;;;8.00;8.00;;;;;20.30;50.76;101958.19;6298636;22;49737;-76
2022/10/12 15:03:03;;;;;;;;;10.75;10.00;;;;;19.61;50.78;101886.19;6302920;22;49706;-74
2022/10/12 15:05:31;;;;;;;;;8.00;8.00;;;;;20.01;50.89;101958.19;6309880;22;49283;-76
2022/10/12 15:07:57;;;;;;;;;8.75;8.50;;;;;19.65;50.88;101916.38;6297911;22;49675;-83
2022/10/12 15:10:27;;;;;;;;;11.50;8.75;;;;;19.77;51.23;101963.47;6298358;22;49817;-78
2022/10/12 15:12:53;;;;;;;;;5.75;5.75;;;;;19.14;51.50;101867.41;6322552;22;50117;-79
2022/10/12 15:15:29;;;;;;;;;7.50;7.00;;;;;19.58;51.94;101955.44;6297931;22;49690;-77
2022/10/12 15:17:56;;;;;;;;;8.00;7.25;;;;;19.31;52.07;101907.41;6297389;22;50643;-78
2022/10/12 15:20:25;;;;;;;;;11.50;9.00;;;;;19.09;52.96;101871.81;6296899;22;49769;-77
2022/10/12 15:22:50;;;;;;;;;9.25;8.00;;;;;19.23;52.76;101906.50;6294746;22;49914;-78
2022/10/12 15:25:23;;;;;;;;;11.25;9.75;;;;;18.82;52.90;101857.53;6296528;22;49810;-76
2022/10/12 15:27:49;;;;;;;;;8.50;8.50;;;;;19.25;53.00;101934.88;6296482;22;50318;-76
2022/10/12 15:30:16;;;;;;;;;6.00;6.00;;;;;19.23;52.43;101927.78;6295507;22;49835;-76
2022/10/12 15:32:41;;;;;;;;;12.00;9.50;;;;;19.02;53.15;101894.00;6303536;22;49660;-73
2022/10/12 15:35:17;;;;;;;;;9.25;8.75;;;;;18.41;53.27;101800.56;6305526;22;49657;-80
2022/10/12 15:37:43;;;;;;;;;12.50;10.75;;;;;18.72;53.03;101844.16;6301013;22;49644;-80
2022/10/12 15:40:10;;;;;;;;;10.50;8.75;;;;;18.75;53.16;101838.88;6299302;22;49531;-83
2022/10/12 15:42:37;;;;;;;;;9.25;9.25;;;;;19.20;53.25;101928.63;6307437;22;49634;-75
2022/10/12 15:45:15;;;;;;;;;9.50;9.50;;;;;18.86;53.19;101888.59;6309567;22;49431;-80
2022/10/12 15:47:41;;;;;;;;;13.50;12.00;;;;;18.00;53.52;101745.41;6310322;22;49466;-74
2022/10/12 15:50:06;;;;;;;;;13.00;7.00;;;;;18.59;53.85;101867.13;6309596;22;49214;-75
2022/10/12 15:52:32;;;;;;;;;8.75;8.75;;;;;18.92;53.51;101922.34;6336054;22;49168;-85
2022/10/12 15:54:57;;;;;;;;;7.25;7.25;;;;;18.34;54.57;101825.34;6311040;22;49433;-87
2022/10/12 15:57:22;;;;;;;;;6.50;6.50;;;;;17.54;54.46;101689.31;6311096;22;50563;-79
2022/10/12 15:59:51;;;;;;;;;7.75;7.75;;;;;17.81;54.67;101747.06;6306464;22;49406;-78
2022/10/12 16:02:17;;;;;;;;;9.25;9.25;;;;;18.54;54.73;101871.56;6308234;22;49468;-75
2022/10/12 16:04:42;;;;;;;;;9.50;7.75;;;;;18.52;55.00;101881.28;6305687;22;49538;-74
2022/10/12 16:07:10;;;;;;;;;10.00;10.00;;;;;17.64;55.15;101730.09;6307241;22;49585;-75
2022/10/12 16:09:35;;;;;;;;;7.25;7.25;;;;;18.54;55.15;101895.50;6305179;22;49372;-76
2022/10/12 16:12:01;;;;;;;;;9.25;8.00;;;;;17.61;55.71;101751.31;6307900;22;49291;-77
2022/10/12 16:14:26;;;;;;;;;9.50;9.50;;;;;17.97;55.71;101819.78;6307176;22;49666;-86
2022/10/12 16:16:51;;;;;;;;;9.50;9.50;;;;;18.03;56.23;101827.78;6306428;22;50160;-71
2022/10/12 16:19:17;;;;;;;;;7.50;7.50;;;;;18.35;56.60;101891.81;6309084;22;53057;-71
2022/10/12 16:21:42;;;;;;;;;12.25;11.50;;;;;17.98;56.44;101842.81;6300956;22;49665;-72
2022/10/12 16:24:07;;;;;;;;;8.75;8.75;;;;;18.25;56.43;101897.97;6297864;22;49669;-73
2022/10/12 16:26:33;;;;;;;;;7.25;6.75;;;;;17.94;56.44;101865.81;6296963;22;51333;-72
2022/10/12 16:28:58;;;;;;;;;5.00;3.50;;;;;18.12;56.66;101904.03;6304318;22;49721;-74
2022/10/12 16:31:23;;;;;;;;;8.75;8.75;;;;;18.05;56.68;101897.81;6309553;22;49423;-69
2022/10/12 16:33:49;;;;;;;;;9.25;8.00;;;;;17.60;56.51;101846.00;6307659;22;49415;-71
2022/10/12 16:36:15;;;;;;;;;9.25;8.25;;;;;17.90;56.78;101909.19;6298104;22;67824;-70
2022/10/12 16:38:42;;;;;;;;;9.00;8.00;;;;;17.68;56.87;101881.50;6297187;22;49620;-70
2022/10/12 16:41:10;;;;;;;;;6.25;6.25;;;;;17.35;57.27;101854.59;6295666;22;49607;-69
2022/10/12 16:43:36;;;;;;;;;6.25;6.00;;;;;17.58;57.28;101911.50;6295883;22;49637;-69
2022/10/12 16:46:02;;;;;;;;;7.75;7.75;;;;;17.57;57.96;101909.72;6295924;22;49996;-69
2022/10/12 16:48:27;;;;;;;;;7.50;7.50;;;;;17.43;58.02;101911.31;6295630;22;49812;-70
2022/10/12 16:50:52;;;;;;;;;6.75;6.75;;;;;17.41;58.34;101919.28;6295939;22;49773;-69
2022/10/12 16:53:17;;;;;;;;;7.25;7.25;;;;;16.55;58.62;101789.13;6295077;22;49543;-70
2022/10/12 16:55:43;;;;;;;;;7.50;7.25;;;;;17.09;59.02;101899.44;6296580;22;50770;-70
2022/10/12 16:58:08;;;;;;;;;8.00;8.00;;;;;17.11;59.12;101911.84;6297150;22;55253;-71
2022/10/12 17:00:34;;;;;;;;;5.75;5.75;;;;;17.03;59.65;101916.16;6297030;22;61623;-70
2022/10/12 17:02:59;;;;;;;;;8.75;8.75;;;;;17.00;60.02;101909.94;6300220;22;49682;-69
2022/10/12 17:05:24;;;;;;;;;9.25;9.25;;;;;16.91;60.23;101909.81;6296426;22;50677;-68
2022/10/12 17:07:50;;;;;;;;;10.25;10.25;;;;;16.53;60.59;101860.66;6298968;22;49604;-69
2022/10/12 17:10:55;;;;;;;;;15.00;11.25;;;;;16.74;60.69;101912.25;6298118;22;49718;-80
2022/10/12 17:13:20;;;;;;;;;11.50;10.75;;;;;16.18;61.77;101838.06;6269408;22;49890;-68
2022/10/12 17:15:45;;;;;;;;;10.25;9.50;;;;;16.42;62.11;101902.03;6302386;22;49633;-69
2022/10/12 17:18:10;;;;;;;;;10.50;9.50;;;;;15.90;61.97;101824.38;6304376;22;49526;-68
2022/10/12 17:20:36;;;;;;;;;9.75;9.75;;;;;15.99;62.24;101856.31;6304774;22;49631;-77
2022/10/12 17:23:01;;;;;;;;;11.00;11.00;;;;;15.35;61.69;101743.19;6302593;22;49725;-71
2022/10/12 17:25:27;;;;;;;;;12.75;12.25;;;;;16.31;62.61;101933.69;6304032;22;49624;-68
2022/10/12 17:27:52;;;;;;;;;15.75;10.75;;;;;15.64;63.20;101808.09;6296942;22;49953;-70
2022/10/12 17:30:17;;;;;;;;;10.25;9.00;;;;;14.99;63.64;101722.25;6298653;22;49725;-78
2022/10/12 17:32:43;;;;;;;;;8.75;7.75;;;;;15.45;63.60;101827.16;6305446;22;49321;-82
2022/10/12 17:35:08;;;;;;;;;13.75;13.75;;;;;15.39;64.53;101821.72;6307918;22;49681;-73
2022/10/12 17:37:34;;;;;;;;;14.25;14.25;;;;;15.75;64.57;101900.94;6308656;22;49371;-80
2022/10/12 17:39:59;;;;;;;;;14.50;14.50;;;;;15.72;64.27;101917.63;6308649;22;49509;-76
2022/10/12 17:42:24;;;;;;;;;21.00;19.25;;;;;15.32;64.96;101849.81;6309415;22;49538;-80
2022/10/12 17:44:50;;;;;;;;;26.50;23.75;;;;;15.23;65.30;101839.06;6308378;22;50162;-75
2022/10/12 17:47:15;;;;;;;;;17.75;16.75;;;;;15.35;65.37;101892.22;6308111;22;49258;-81
2022/10/12 17:49:41;;;;;;;;;19.00;18.25;;;;;14.53;65.69;101758.38;6308611;22;49395;-77
2022/10/12 17:52:06;;;;;;;;;22.50;19.75;;;;;14.59;65.84;101783.19;6308948;22;49325;-74
2022/10/12 17:54:31;;;;;;;;;22.00;20.25;;;;;15.34;65.90;101916.88;6309383;22;49402;-83